createdAt,value
2019-05-01T00:02:06.039Z,37.40
2019-05-01T00:04:42.803Z,35.63
2019-05-01T00:07:25.858Z,39.80
2019-05-01T00:09:56.559Z,39.80
2019-05-01T00:12:25.955Z,41.47
2019-05-01T00:14:55.276Z,38.87
2019-05-01T00:17:27.576Z,37.37
2019-05-01T00:19:57.141Z,41.23
2019-05-01T00:22:27.880Z,38.60
2019-05-01T00:24:57.143Z,40.47
2019-05-01T00:27:26.455Z,41.23
2019-05-01T00:29:55.723Z,39.83
2019-05-01T00:32:25.993Z,39.93
2019-05-01T00:34:55.303Z,37.80
2019-05-01T00:37:24.571Z,39.30
2019-05-01T00:39:53.878Z,39.50
2019-05-01T00:42:23.191Z,48.93
2019-05-01T00:44:52.530Z,42.33
2019-05-01T00:47:21.840Z,43.00
2019-05-01T00:49:51.107Z,40.07
2019-05-01T00:52:20.383Z,45.90
2019-05-01T00:54:51.307Z,48.67
2019-05-01T00:57:37.180Z,46.33
2019-05-01T01:00:14.133Z,43.40
2019-05-01T01:02:45.046Z,42.40
2019-05-01T01:05:15.544Z,45.07
2019-05-01T01:07:44.811Z,48.23
2019-05-01T01:10:14.310Z,43.40
2019-05-01T01:12:43.633Z,40.03
2019-05-01T01:15:13.314Z,46.53
2019-05-01T01:17:42.594Z,41.97
2019-05-01T01:20:12.014Z,43.27
2019-05-01T01:22:41.471Z,42.60
2019-05-01T01:25:11.159Z,47.30
2019-05-01T01:27:40.654Z,43.93
2019-05-01T01:30:10.451Z,43.17
2019-05-01T01:32:39.775Z,47.40
2019-05-01T01:35:09.319Z,45.53
2019-05-01T01:37:38.675Z,45.07
2019-05-01T01:40:08.278Z,44.40
2019-05-01T01:42:38.713Z,46.37
2019-05-01T01:45:12.428Z,46.57
2019-05-01T01:48:00.322Z,43.17
2019-05-01T01:50:30.015Z,46.53
2019-05-01T01:52:59.493Z,44.83
2019-05-01T01:55:29.374Z,43.83
2019-05-01T01:57:58.983Z,46.30
2019-05-01T02:00:29.937Z,47.03
2019-05-01T02:03:01.448Z,43.77
2019-05-01T02:05:32.522Z,45.27
2019-05-01T02:08:02.740Z,53.53
2019-05-01T02:10:42.568Z,46.37
2019-05-01T02:13:03.476Z,50.30
2019-05-01T02:15:32.846Z,44.20
2019-05-01T02:18:02.172Z,47.87
2019-05-01T02:20:31.666Z,47.77
2019-05-01T02:23:02.237Z,48.70
2019-05-01T02:25:33.382Z,53.17
2019-05-01T02:28:23.267Z,49.30
2019-05-01T02:31:27.151Z,51.53
2019-05-01T02:33:47.271Z,48.83
2019-05-01T02:36:19.038Z,47.30
2019-05-01T02:38:49.806Z,45.03
2019-05-01T02:41:20.550Z,46.97
2019-05-01T02:43:54.277Z,55.87
2019-05-01T02:46:25.762Z,50.83
2019-05-01T02:49:04.064Z,49.43
2019-05-01T02:51:35.251Z,50.20
2019-05-01T02:54:06.000Z,54.67
2019-05-01T02:56:38.033Z,50.93
2019-05-01T02:59:09.123Z,52.77
2019-05-01T03:01:47.392Z,50.90
2019-05-01T03:04:11.224Z,54.50
2019-05-01T03:06:40.951Z,53.67
2019-05-01T03:09:10.582Z,51.57
2019-05-01T03:11:41.961Z,50.57
2019-05-01T03:14:14.291Z,54.17
2019-05-01T03:16:45.568Z,51.77
2019-05-01T03:19:28.720Z,49.97
2019-05-01T03:22:16.392Z,54.70
2019-05-01T03:24:45.899Z,51.10
2019-05-01T03:27:17.084Z,55.67
2019-05-01T03:29:48.098Z,53.00
2019-05-01T03:32:19.519Z,56.83
2019-05-01T03:34:52.659Z,56.83
2019-05-01T03:37:21.219Z,56.27
2019-05-01T03:39:50.851Z,52.33
2019-05-01T03:42:22.355Z,55.23
2019-05-01T03:44:51.906Z,50.53
2019-05-01T03:47:21.697Z,56.50
2019-05-01T03:49:51.184Z,53.70
2019-05-01T03:52:20.671Z,51.33
2019-05-01T03:54:50.278Z,54.70
2019-05-01T03:57:19.846Z,54.90
2019-05-01T03:59:49.155Z,60.00
2019-05-01T04:02:32.763Z,58.27
2019-05-01T04:04:55.179Z,60.43
2019-05-01T04:07:24.615Z,64.00
2019-05-01T04:09:54.217Z,69.57
2019-05-01T04:12:23.775Z,61.63
2019-05-01T04:14:53.205Z,69.93
2019-05-01T04:17:33.164Z,73.30
2019-05-01T04:20:02.576Z,77.67
2019-05-01T04:22:31.935Z,85.10
2019-05-01T04:25:01.572Z,79.17
2019-05-01T04:27:32.794Z,97.13
2019-05-01T04:30:19.001Z,87.33
2019-05-01T04:32:52.958Z,68.43
2019-05-01T04:35:25.719Z,72.37
2019-05-01T04:37:55.301Z,72.97
2019-05-01T04:40:25.229Z,63.30
2019-05-01T04:42:56.135Z,64.70
2019-05-01T04:45:26.135Z,62.00
2019-05-01T04:47:55.892Z,73.20
2019-05-01T04:50:25.366Z,75.37
2019-05-01T04:52:55.095Z,65.90
2019-05-01T04:55:24.494Z,73.57
2019-05-01T04:57:53.823Z,70.20
2019-05-01T05:00:23.155Z,68.80
2019-05-01T05:03:04.472Z,75.73
2019-05-01T05:05:26.810Z,77.33
2019-05-01T05:07:56.118Z,79.27
2019-05-01T05:10:25.493Z,72.30
2019-05-01T05:12:59.656Z,85.30
2019-05-01T05:15:31.311Z,81.07
2019-05-01T05:18:00.852Z,84.83
2019-05-01T05:20:30.663Z,78.20
2019-05-01T05:23:01.547Z,85.57
2019-05-01T05:25:31.425Z,96.50
2019-05-01T05:28:01.209Z,89.90
2019-05-01T05:30:32.343Z,85.97
2019-05-01T05:33:17.166Z,85.07
2019-05-01T05:35:38.398Z,89.33
2019-05-01T05:38:10.819Z,84.60
2019-05-01T05:40:41.963Z,83.53
2019-05-01T05:43:11.563Z,86.67
2019-05-01T05:45:41.108Z,85.30
2019-05-01T05:48:10.460Z,86.03
2019-05-01T05:50:58.795Z,81.73
2019-05-01T05:53:32.634Z,82.07
2019-05-01T05:56:05.407Z,93.77
2019-05-01T05:58:45.023Z,83.03
2019-05-01T06:01:29.746Z,81.10
2019-05-01T06:04:10.542Z,86.50
2019-05-01T06:06:46.829Z,85.37
2019-05-01T06:09:18.988Z,88.83
2019-05-01T06:11:53.376Z,85.07
2019-05-01T06:14:39.506Z,85.90
2019-05-01T06:17:29.868Z,94.47
2019-05-01T06:20:06.828Z,87.23
2019-05-01T06:22:40.806Z,87.73
2019-05-01T06:25:22.856Z,76.63
2019-05-01T06:27:51.254Z,73.57
2019-05-01T06:30:20.545Z,70.47
2019-05-01T06:32:49.957Z,77.13
2019-05-01T06:35:19.207Z,87.87
2019-05-01T06:38:03.711Z,84.40
2019-05-01T06:40:40.694Z,88.30
2019-05-01T06:43:14.753Z,86.47
2019-05-01T06:45:46.933Z,90.20
2019-05-01T06:48:25.131Z,77.30
2019-05-01T06:50:57.312Z,81.87
2019-05-01T06:53:26.999Z,84.60
2019-05-01T06:55:56.423Z,81.90
2019-05-01T06:58:27.347Z,79.53
2019-05-01T07:00:56.850Z,90.40
2019-05-01T07:03:26.260Z,92.63
2019-05-01T07:05:56.304Z,87.93
2019-05-01T07:08:29.531Z,87.40
2019-05-01T07:10:57.257Z,82.37
2019-05-01T07:13:26.678Z,87.10
2019-05-01T07:15:58.365Z,84.17
2019-05-01T07:18:29.138Z,96.60
2019-05-01T07:20:58.134Z,92.70
2019-05-01T07:23:27.650Z,91.43
2019-05-01T07:25:57.058Z,82.57
2019-05-01T07:28:28.936Z,81.07
2019-05-01T07:31:00.948Z,92.93
2019-05-01T07:33:30.410Z,81.73
2019-05-01T07:36:00.462Z,95.23
2019-05-01T07:38:32.910Z,98.37
2019-05-01T07:41:03.482Z,92.37
2019-05-01T07:43:40.290Z,96.80
2019-05-01T07:46:18.423Z,93.93
2019-05-01T07:48:45.996Z,87.63
2019-05-01T07:51:15.503Z,96.50
2019-05-01T07:53:45.496Z,87.30
2019-05-01T07:56:17.278Z,77.10
2019-05-01T07:58:47.546Z,81.23
2019-05-01T08:01:20.184Z,81.27
2019-05-01T08:03:49.508Z,75.23
2019-05-01T08:06:21.835Z,72.70
2019-05-01T08:08:49.861Z,79.67
2019-05-01T08:11:19.224Z,82.53
2019-05-01T08:13:48.463Z,81.57
2019-05-01T08:16:17.942Z,78.53
2019-05-01T08:18:59.024Z,90.57
2019-05-01T08:21:30.459Z,96.47
2019-05-01T08:23:59.864Z,89.73
2019-05-01T08:26:29.101Z,84.57
2019-05-01T08:29:06.815Z,88.63
2019-05-01T08:31:41.707Z,93.60
2019-05-01T08:34:12.603Z,100.13
2019-05-01T08:36:42.707Z,107.10
2019-05-01T08:39:13.934Z,92.93
2019-05-01T08:41:43.357Z,107.93
2019-05-01T08:44:12.638Z,108.27
2019-05-01T08:46:46.765Z,98.60
2019-05-01T08:49:19.090Z,92.50
2019-05-01T08:51:49.592Z,90.40
2019-05-01T08:54:19.021Z,102.23
2019-05-01T08:56:48.451Z,87.63
2019-05-01T08:59:19.343Z,104.43
2019-05-01T09:01:50.616Z,104.70
2019-05-01T09:04:19.731Z,100.80
2019-05-01T09:06:49.151Z,103.03
2019-05-01T09:09:18.516Z,95.60
2019-05-01T09:11:47.822Z,124.23
2019-05-01T09:14:17.187Z,117.67
2019-05-01T09:16:46.458Z,134.63
2019-05-01T09:19:15.789Z,115.37
2019-05-01T09:21:45.073Z,116.40
2019-05-01T09:24:14.398Z,134.60
2019-05-01T09:26:50.213Z,138.63
2019-05-01T09:29:20.956Z,135.30
2019-05-01T09:31:50.782Z,131.53
2019-05-01T09:34:21.088Z,128.53
2019-05-01T09:36:50.640Z,131.93
2019-05-01T09:39:21.015Z,105.97
2019-05-01T09:41:50.429Z,109.30
2019-05-01T09:44:19.701Z,105.43
2019-05-01T09:46:49.037Z,114.03
2019-05-01T09:49:20.295Z,119.30
2019-05-01T09:51:55.151Z,116.23
2019-05-01T09:54:26.053Z,126.70
2019-05-01T09:56:55.366Z,131.27
2019-05-01T09:59:24.739Z,121.77
2019-05-01T10:01:55.505Z,132.20
2019-05-01T10:04:25.501Z,130.33
2019-05-01T10:06:55.812Z,150.00
2019-05-01T10:09:27.018Z,142.93
2019-05-01T10:11:56.355Z,141.87
2019-05-01T10:14:25.752Z,154.00
2019-05-01T10:16:55.040Z,133.60
2019-05-01T10:19:24.317Z,113.47
2019-05-01T10:21:53.636Z,129.47
2019-05-01T10:24:22.906Z,121.47
2019-05-01T10:26:55.267Z,127.20
2019-05-01T10:29:38.814Z,116.70
2019-05-01T10:32:26.432Z,110.57
2019-05-01T10:35:00.118Z,120.37
2019-05-01T10:37:33.739Z,109.87
2019-05-01T10:40:01.872Z,100.13
2019-05-01T10:42:32.730Z,108.80
2019-05-01T10:45:02.020Z,105.90
2019-05-01T10:47:31.249Z,111.57
2019-05-01T10:50:00.518Z,102.03
2019-05-01T10:52:29.851Z,116.60
2019-05-01T10:54:59.106Z,109.90
2019-05-01T10:57:28.462Z,107.67
2019-05-01T10:59:57.803Z,107.30
2019-05-01T11:02:28.174Z,116.20
2019-05-01T11:04:57.479Z,118.97
2019-05-01T11:07:26.850Z,110.33
2019-05-01T11:09:57.450Z,116.37
2019-05-01T11:12:26.727Z,101.33
2019-05-01T11:14:56.091Z,111.67
2019-05-01T11:17:25.327Z,104.73
2019-05-01T11:19:54.586Z,95.87
2019-05-01T11:22:23.931Z,90.30
2019-05-01T11:24:53.194Z,66.60
2019-05-01T11:27:22.578Z,81.83
2019-05-01T11:29:51.902Z,78.43
2019-05-01T11:32:31.479Z,68.00
2019-05-01T11:35:02.417Z,64.43
2019-05-01T11:37:33.320Z,68.23
2019-05-01T11:40:19.614Z,67.67
2019-05-01T11:42:48.863Z,64.17
2019-05-01T11:45:18.281Z,62.03
2019-05-01T11:47:47.554Z,68.80
2019-05-01T11:50:16.939Z,70.77
2019-05-01T11:52:46.312Z,67.87
2019-05-01T11:55:15.736Z,76.80
2019-05-01T11:57:45.139Z,82.53
2019-05-01T12:00:16.718Z,91.93
2019-05-01T12:02:47.546Z,109.57
2019-05-01T12:05:17.634Z,99.33
2019-05-01T12:07:48.195Z,108.47
2019-05-01T12:10:18.477Z,100.03
2019-05-01T12:12:47.825Z,106.93
2019-05-01T12:15:17.862Z,111.30
2019-05-01T12:17:50.941Z,119.73
2019-05-01T12:20:21.514Z,106.83
2019-05-01T12:22:51.528Z,106.73
2019-05-01T12:25:21.097Z,98.87
2019-05-01T12:27:50.356Z,98.17
2019-05-01T12:30:21.239Z,88.70
2019-05-01T12:32:50.590Z,93.97
2019-05-01T12:35:19.843Z,92.47
2019-05-01T12:37:49.194Z,94.07
2019-05-01T12:40:22.496Z,98.27
2019-05-01T12:42:53.141Z,92.63
2019-05-01T12:45:22.682Z,92.20
2019-05-01T12:47:53.591Z,95.77
2019-05-01T12:50:23.040Z,85.43
2019-05-01T12:52:59.939Z,88.03
2019-05-01T12:55:47.147Z,82.80
2019-05-01T12:58:16.407Z,87.27
2019-05-01T13:00:54.940Z,83.20
2019-05-01T13:03:24.261Z,84.80
2019-05-01T13:05:53.667Z,80.00
2019-05-01T13:08:23.027Z,77.93
2019-05-01T13:10:52.388Z,70.80
2019-05-01T13:13:21.676Z,66.90
2019-05-01T13:15:51.003Z,62.67
2019-05-01T13:18:20.340Z,58.93
2019-05-01T13:20:49.682Z,60.60
2019-05-01T13:23:18.953Z,58.83
2019-05-01T13:25:49.418Z,65.57
2019-05-01T13:28:32.215Z,61.47
2019-05-01T13:31:20.903Z,60.90
2019-05-01T13:33:50.303Z,55.63
2019-05-01T13:36:19.618Z,56.53
2019-05-01T13:38:48.902Z,55.27
2019-05-01T13:41:18.512Z,50.20
2019-05-01T13:43:47.844Z,50.80
2019-05-01T13:46:17.247Z,51.07
2019-05-01T13:48:46.636Z,51.17
2019-05-01T13:51:16.991Z,52.33
2019-05-01T13:53:46.395Z,51.63
2019-05-01T13:56:15.783Z,50.20
2019-05-01T13:58:45.011Z,49.37
2019-05-01T14:01:15.332Z,48.63
2019-05-01T14:03:44.676Z,52.63
2019-05-01T14:06:14.039Z,53.90
2019-05-01T14:08:43.275Z,55.00
2019-05-01T14:11:12.596Z,56.40
2019-05-01T14:13:41.979Z,53.33
2019-05-01T14:16:14.347Z,54.90
2019-05-01T14:18:43.623Z,56.20
2019-05-01T14:21:17.571Z,53.60
2019-05-01T14:24:05.129Z,52.93
2019-05-01T14:26:34.818Z,57.33
2019-05-01T14:29:04.479Z,52.10
2019-05-01T14:31:33.951Z,55.10
2019-05-01T14:34:03.227Z,58.83
2019-05-01T14:36:32.486Z,53.60
2019-05-01T14:39:01.761Z,56.63
2019-05-01T14:41:31.020Z,56.47
2019-05-01T14:44:00.286Z,56.67
2019-05-01T14:46:29.617Z,57.43
2019-05-01T14:48:58.907Z,59.00
2019-05-01T14:51:28.167Z,54.03
2019-05-01T14:53:57.515Z,54.10
2019-05-01T14:56:26.770Z,54.77
2019-05-01T14:58:56.042Z,54.97
2019-05-01T15:01:25.430Z,55.43
2019-05-01T15:03:54.866Z,58.90
2019-05-01T15:06:24.181Z,55.03
2019-05-01T15:08:53.522Z,61.20
2019-05-01T15:11:22.864Z,62.43
2019-05-01T15:14:00.071Z,62.67
2019-05-01T15:16:39.948Z,59.63
2019-05-01T15:19:10.831Z,63.27
2019-05-01T15:21:42.892Z,60.37
2019-05-01T15:24:12.157Z,57.93
2019-05-01T15:26:41.692Z,59.70
2019-05-01T15:29:11.032Z,62.67
2019-05-01T15:31:40.562Z,56.10
2019-05-01T15:34:09.805Z,55.10
2019-05-01T15:36:39.043Z,60.63
2019-05-01T15:39:10.902Z,61.73
2019-05-01T15:41:44.763Z,59.50
2019-05-01T15:44:18.737Z,55.60
2019-05-01T15:46:49.278Z,57.83
2019-05-01T15:49:18.566Z,55.83
2019-05-01T15:51:47.968Z,54.67
2019-05-01T15:54:18.435Z,55.33
2019-05-01T15:56:47.706Z,57.63
2019-05-01T15:59:17.015Z,60.33
2019-05-01T16:01:46.365Z,58.90
2019-05-01T16:04:15.831Z,57.80
2019-05-01T16:06:45.088Z,56.77
2019-05-01T16:09:14.422Z,57.70
2019-05-01T16:11:48.451Z,54.73
2019-05-01T16:14:17.922Z,53.47
2019-05-01T16:16:47.206Z,54.70
2019-05-01T16:19:16.552Z,54.40
2019-05-01T16:21:45.892Z,55.20
2019-05-01T16:24:15.184Z,58.93
2019-05-01T16:26:44.454Z,53.23
2019-05-01T16:29:13.779Z,51.37
2019-05-01T16:31:43.118Z,53.37
2019-05-01T16:34:13.711Z,50.90
2019-05-01T16:36:43.111Z,48.63
2019-05-01T16:39:14.343Z,51.60
2019-05-01T16:41:46.727Z,50.20
2019-05-01T16:44:16.106Z,51.93
2019-05-01T16:46:45.367Z,49.37
2019-05-01T16:49:14.624Z,49.93
2019-05-01T16:51:43.926Z,50.03
2019-05-01T16:54:13.260Z,51.70
2019-05-01T16:56:42.509Z,46.47
2019-05-01T16:59:11.883Z,47.57
2019-05-01T17:01:49.040Z,49.70
2019-05-01T17:04:25.852Z,49.23
2019-05-01T17:06:56.763Z,51.73
2019-05-01T17:09:42.309Z,59.10
2019-05-01T17:12:12.392Z,57.00
2019-05-01T17:14:41.636Z,52.83
2019-05-01T17:17:12.651Z,53.73
2019-05-01T17:19:41.924Z,60.33
2019-05-01T17:22:14.316Z,53.83
2019-05-01T17:24:42.436Z,57.00
2019-05-01T17:27:11.731Z,54.73
2019-05-01T17:29:41.047Z,56.70
2019-05-01T17:32:12.063Z,57.13
2019-05-01T17:34:41.363Z,56.20
2019-05-01T17:37:10.648Z,61.07
2019-05-01T17:39:39.983Z,55.60
2019-05-01T17:42:09.381Z,55.87
2019-05-01T17:44:39.600Z,52.90
2019-05-01T17:47:09.211Z,53.57
2019-05-01T17:49:41.104Z,55.73
2019-05-01T17:52:09.553Z,55.50
2019-05-01T17:54:38.917Z,51.30
2019-05-01T17:57:11.017Z,52.20
2019-05-01T17:59:40.291Z,51.47
2019-05-01T18:02:11.515Z,50.10
2019-05-01T18:04:54.735Z,48.87
2019-05-01T18:07:24.499Z,49.07
2019-05-01T18:09:55.690Z,52.17
2019-05-01T18:12:28.567Z,52.37
2019-05-01T18:14:55.784Z,53.23
2019-05-01T18:17:25.182Z,55.13
2019-05-01T18:19:58.090Z,51.50
2019-05-01T18:22:45.537Z,55.57
2019-05-01T18:25:19.304Z,54.20
2019-05-01T18:28:02.664Z,54.93
2019-05-01T18:30:33.711Z,54.70
2019-05-01T18:33:03.016Z,57.50
2019-05-01T18:35:32.274Z,57.17
2019-05-01T18:38:10.921Z,60.47
2019-05-01T18:40:38.804Z,63.77
2019-05-01T18:43:08.417Z,61.33
2019-05-01T18:45:49.630Z,61.57
2019-05-01T18:48:20.371Z,56.60
2019-05-01T18:50:55.059Z,55.43
2019-05-01T18:53:21.508Z,55.00
2019-05-01T18:55:50.959Z,59.30
2019-05-01T18:58:20.304Z,56.47
2019-05-01T19:00:49.855Z,58.97
2019-05-01T19:03:22.179Z,56.80
2019-05-01T19:05:50.485Z,58.87
2019-05-01T19:08:19.731Z,58.33
2019-05-01T19:10:49.282Z,56.83
2019-05-01T19:13:18.711Z,61.77
2019-05-01T19:15:48.015Z,64.57
2019-05-01T19:18:17.435Z,67.17
2019-05-01T19:20:58.837Z,62.97
2019-05-01T19:23:22.086Z,63.20
2019-05-01T19:25:50.891Z,61.33
2019-05-01T19:28:20.653Z,68.03
2019-05-01T19:30:50.059Z,63.50
2019-05-01T19:33:19.556Z,64.13
2019-05-01T19:35:49.003Z,64.53
2019-05-01T19:38:18.648Z,66.40
2019-05-01T19:40:48.142Z,69.87
2019-05-01T19:43:17.557Z,71.60
2019-05-01T19:45:48.515Z,69.77
2019-05-01T19:48:17.943Z,68.60
2019-05-01T19:50:49.604Z,70.03
2019-05-01T19:53:19.146Z,73.67
2019-05-01T19:55:48.596Z,71.00
2019-05-01T19:58:17.971Z,73.30
2019-05-01T20:00:53.230Z,75.67
2019-05-01T20:03:23.018Z,70.93
2019-05-01T20:05:52.505Z,75.00
2019-05-01T20:08:22.061Z,76.80
2019-05-01T20:10:51.567Z,78.47
2019-05-01T20:13:20.920Z,84.10
2019-05-01T20:15:50.268Z,88.63
2019-05-01T20:18:19.623Z,75.97
2019-05-01T20:20:49.169Z,76.70
2019-05-01T20:23:18.514Z,80.67
2019-05-01T20:25:50.962Z,105.87
2019-05-01T20:28:20.042Z,77.83
2019-05-01T20:30:53.876Z,71.07
2019-05-01T20:33:25.898Z,77.13
2019-05-01T20:35:55.281Z,75.47
2019-05-01T20:38:26.209Z,71.60
2019-05-01T20:40:55.543Z,73.13
2019-05-01T20:43:25.217Z,77.53
2019-05-01T20:45:54.660Z,77.87
2019-05-01T20:48:25.135Z,73.03
2019-05-01T20:50:54.779Z,79.40
2019-05-01T20:53:24.076Z,73.17
2019-05-01T20:55:54.957Z,79.10
2019-05-01T20:58:24.318Z,73.97
2019-05-01T21:00:55.267Z,80.23
2019-05-01T21:03:24.612Z,72.00
2019-05-01T21:05:56.579Z,71.50
2019-05-01T21:08:34.418Z,78.37
2019-05-01T21:11:06.021Z,83.80
2019-05-01T21:13:33.830Z,79.03
2019-05-01T21:16:03.891Z,79.30
2019-05-01T21:18:33.519Z,77.70
2019-05-01T21:21:03.545Z,75.23
2019-05-01T21:23:33.424Z,78.43
2019-05-01T21:26:03.867Z,77.30
2019-05-01T21:28:36.196Z,79.33
2019-05-01T21:31:05.517Z,79.20
2019-05-01T21:33:34.783Z,81.93
2019-05-01T21:36:08.206Z,83.97
2019-05-01T21:38:35.042Z,80.90
2019-05-01T21:41:04.438Z,80.03
2019-05-01T21:43:37.007Z,83.00
2019-05-01T21:46:08.013Z,84.47
2019-05-01T21:48:38.496Z,85.73
2019-05-01T21:51:07.834Z,92.43
2019-05-01T21:53:41.600Z,78.13
2019-05-01T21:56:08.189Z,85.20
2019-05-01T21:58:37.544Z,77.47
2019-05-01T22:01:07.274Z,82.03
2019-05-01T22:03:36.694Z,77.83
2019-05-01T22:06:05.992Z,81.47
2019-05-01T22:08:39.140Z,84.90
2019-05-01T22:11:06.803Z,80.63
2019-05-01T22:13:36.160Z,85.73
2019-05-01T22:16:12.889Z,86.73
2019-05-01T22:18:56.231Z,77.60
2019-05-01T22:21:33.033Z,77.57
2019-05-01T22:24:20.418Z,76.57
2019-05-01T22:26:59.966Z,73.20
2019-05-01T22:29:32.407Z,66.97
2019-05-01T22:32:03.955Z,67.70
2019-05-01T22:34:51.312Z,68.80
2019-05-01T22:37:20.539Z,71.60
2019-05-01T22:39:53.718Z,66.50
2019-05-01T22:42:23.122Z,64.00
2019-05-01T22:44:53.770Z,68.17
2019-05-01T22:47:23.179Z,66.50
2019-05-01T22:49:52.441Z,67.20
2019-05-01T22:52:21.759Z,72.20
2019-05-01T22:54:52.634Z,73.87
2019-05-01T22:57:21.947Z,75.43
2019-05-01T22:59:51.220Z,69.47
2019-05-01T23:02:28.492Z,72.53
2019-05-01T23:04:55.951Z,74.20
2019-05-01T23:07:25.771Z,78.47
2019-05-01T23:09:59.364Z,78.73
2019-05-01T23:12:26.224Z,82.90
2019-05-01T23:14:55.615Z,79.17
2019-05-01T23:17:39.597Z,82.77
2019-05-01T23:20:09.229Z,78.37
2019-05-01T23:22:38.460Z,81.63
2019-05-01T23:25:09.688Z,86.43
2019-05-01T23:27:39.001Z,85.30
2019-05-01T23:30:10.679Z,78.73
2019-05-01T23:32:46.110Z,81.63
2019-05-01T23:35:15.587Z,79.37
2019-05-01T23:37:44.848Z,84.47
2019-05-01T23:40:15.511Z,79.47
2019-05-01T23:42:52.275Z,73.47
2019-05-01T23:45:16.932Z,74.37
2019-05-01T23:47:46.215Z,74.50
2019-05-01T23:50:15.574Z,78.43
2019-05-01T23:52:44.894Z,77.93
2019-05-01T23:55:14.287Z,78.60
2019-05-01T23:57:43.544Z,76.90
